Time;durP1;ratioP1;P1;durP2;ratioP2;P2;SDS_P1;SDS_P2;PMS_P1;PMS_P2;Temp;Humidity;BMP_temperature;BMP_pressure;BME280_temperature;BME280_humidity;BME280_pressure;Samples;Min_cycle;Max_cycle;Signal;HPM_P1;HPM_P2
2021/09/14 00:00:57;;;;;;;12.73;8.17;;;18.60;90.60;;;;;;5032811;28;20194;-76
2021/09/14 00:03:23;;;;;;;12.50;7.70;;;18.60;90.70;;;;;;5030770;28;20232;-76
2021/09/14 00:05:48;;;;;;;10.30;7.57;;;18.60;90.70;;;;;;5032173;28;20354;-75
2021/09/14 00:08:14;;;;;;;9.77;7.20;;;18.60;90.70;;;;;;5030841;28;20513;-74
2021/09/14 00:10:40;;;;;;;11.03;7.00;;;18.60;90.60;;;;;;5032242;28;20195;-74
2021/09/14 00:13:07;;;;;;;9.10;6.70;;;18.60;90.60;;;;;;5030972;28;20251;-75
2021/09/14 00:15:33;;;;;;;9.77;6.90;;;18.60;90.60;;;;;;5030282;28;20277;-77
2021/09/14 00:17:59;;;;;;;11.50;7.07;;;18.60;90.60;;;;;;5032826;28;20422;-77
2021/09/14 00:20:25;;;;;;;11.37;7.40;;;18.50;90.60;;;;;;5030754;28;20429;-78
2021/09/14 00:22:50;;;;;;;13.33;8.10;;;18.50;90.60;;;;;;5031697;28;20217;-76
2021/09/14 00:25:16;;;;;;;13.43;7.43;;;18.50;90.60;;;;;;5032031;28;20208;-78
2021/09/14 00:27:42;;;;;;;20.60;8.70;;;18.40;90.50;;;;;;5033645;28;20207;-76
2021/09/14 00:30:08;;;;;;;12.87;7.10;;;18.40;90.30;;;;;;5033428;28;20449;-76
2021/09/14 00:32:34;;;;;;;13.90;7.17;;;18.40;90.40;;;;;;5034546;28;20698;-76
2021/09/14 00:35:00;;;;;;;11.60;8.20;;;18.40;90.30;;;;;;5034258;28;20454;-77
2021/09/14 00:37:25;;;;;;;8.70;6.37;;;18.40;90.40;;;;;;5036191;28;20222;-78
2021/09/14 00:39:51;;;;;;;11.77;7.80;;;18.50;90.40;;;;;;5036898;28;20194;-76
2021/09/14 00:42:17;;;;;;;10.13;7.17;;;18.50;90.50;;;;;;5034175;28;20194;-78
2021/09/14 00:44:43;;;;;;;13.17;7.70;;;18.50;90.70;;;;;;5031899;28;20678;-77
2021/09/14 00:47:08;;;;;;;9.57;6.70;;;18.50;90.50;;;;;;5037407;28;20650;-78
2021/09/14 00:49:34;;;;;;;11.30;7.43;;;18.50;90.50;;;;;;5036360;28;20196;-78
2021/09/14 00:52:00;;;;;;;13.40;7.83;;;18.50;90.50;;;;;;5032268;28;20287;-78
2021/09/14 00:54:27;;;;;;;10.60;6.73;;;18.40;90.30;;;;;;5032019;28;20276;-78
2021/09/14 00:56:56;;;;;;;11.80;7.60;;;18.30;90.50;;;;;;5031107;28;20549;-79
2021/09/14 00:59:22;;;;;;;9.90;6.90;;;18.40;90.40;;;;;;5031188;28;20967;-77
2021/09/14 01:01:47;;;;;;;10.03;7.07;;;18.30;90.70;;;;;;5034050;28;20426;-78
2021/09/14 01:04:13;;;;;;;12.83;7.67;;;18.30;90.90;;;;;;5031879;28;20186;-77
2021/09/14 01:06:39;;;;;;;12.30;7.30;;;18.30;90.90;;;;;;5030047;28;20698;-77
2021/09/14 01:09:05;;;;;;;11.33;6.20;;;18.20;91.00;;;;;;5032194;28;20186;-77
2021/09/14 01:11:31;;;;;;;11.60;7.57;;;18.20;91.10;;;;;;5035345;28;20284;-77
2021/09/14 01:14:04;;;;;;;11.53;6.97;;;18.20;91.00;;;;;;5033470;28;20519;-76
2021/09/14 01:16:32;;;;;;;12.07;7.73;;;18.20;91.00;;;;;;5034727;28;20214;-77
2021/09/14 01:18:59;;;;;;;9.70;6.97;;;18.20;91.00;;;;;;5034281;28;20425;-77
2021/09/14 01:21:25;;;;;;;12.03;7.80;;;18.20;90.90;;;;;;5035239;28;20440;-76
2021/09/14 01:23:51;;;;;;;10.13;7.10;;;18.20;91.00;;;;;;5030568;28;20971;-76
2021/09/14 01:26:17;;;;;;;9.70;7.30;;;18.20;90.80;;;;;;5033983;28;20210;-77
2021/09/14 01:28:43;;;;;;;10.30;6.33;;;18.20;90.80;;;;;;5032692;28;20496;-76
2021/09/14 01:31:09;;;;;;;13.43;7.70;;;18.20;90.90;;;;;;5032047;28;20427;-77
2021/09/14 01:33:35;;;;;;;8.87;6.43;;;18.20;91.00;;;;;;5031708;28;20264;-76
2021/09/14 01:36:00;;;;;;;10.47;7.73;;;18.20;91.00;;;;;;5029841;28;20228;-75
2021/09/14 01:38:26;;;;;;;9.87;7.03;;;18.20;90.80;;;;;;5033092;28;20186;-76
2021/09/14 01:40:53;;;;;;;10.27;6.20;;;18.10;91.00;;;;;;5033058;28;20189;-77
2021/09/14 01:43:21;;;;;;;10.33;7.03;;;18.10;91.20;;;;;;5042811;28;20323;-76
2021/09/14 01:45:46;;;;;;;11.37;7.40;;;18.10;91.40;;;;;;5039670;28;20445;-77
2021/09/14 01:48:12;;;;;;;11.43;7.30;;;18.10;91.30;;;;;;5032600;28;20424;-76
2021/09/14 01:50:39;;;;;;;10.97;7.40;;;18.00;91.40;;;;;;5033097;28;20214;-76
2021/09/14 01:53:04;;;;;;;8.07;6.70;;;18.00;91.40;;;;;;5032442;28;20209;-76
2021/09/14 01:55:30;;;;;;;14.47;7.57;;;18.00;91.30;;;;;;5028320;28;20911;-76
2021/09/14 01:57:57;;;;;;;9.90;6.37;;;18.00;91.30;;;;;;5025174;28;21082;-76
2021/09/14 02:00:29;;;;;;;13.00;8.20;;;17.90;91.20;;;;;;5033314;28;20903;-77
2021/09/14 02:03:19;;;;;;;12.50;7.80;;;17.90;91.30;;;;;;5030446;28;20506;-76
2021/09/14 02:06:17;;;;;;;14.60;7.33;;;17.80;91.50;;;;;;5027896;28;20832;-77
2021/09/14 02:41:34;;;;;;;15.13;7.37;;;17.40;92.50;;;;;;5032703;28;20408;-77
2021/09/14 03:00:07;;;;;;;10.63;7.80;;;17.40;92.80;;;;;;5027521;28;20424;-77
2021/09/14 03:02:33;;;;;;;10.10;7.00;;;17.40;92.90;;;;;;5031762;28;20420;-77
2021/09/14 03:04:59;;;;;;;13.33;7.70;;;17.40;92.90;;;;;;5024925;28;21149;-77
2021/09/14 03:07:25;;;;;;;10.90;7.50;;;17.40;92.90;;;;;;5031720;28;20452;-77
2021/09/14 03:09:50;;;;;;;9.80;6.90;;;17.40;92.90;;;;;;5030156;28;20264;-77
2021/09/14 03:12:16;;;;;;;13.60;7.80;;;17.50;92.70;;;;;;5030096;28;20254;-76
2021/09/14 03:14:44;;;;;;;9.23;6.73;;;17.60;92.60;;;;;;5031099;28;20184;-77
2021/09/14 03:17:10;;;;;;;11.63;7.20;;;17.60;92.50;;;;;;5028492;28;20218;-77
2021/09/14 03:19:35;;;;;;;12.13;7.30;;;17.60;92.60;;;;;;5033419;28;20449;-77
2021/09/14 03:22:01;;;;;;;9.93;6.70;;;17.50;92.60;;;;;;5029797;28;20181;-78
2021/09/14 03:24:27;;;;;;;10.77;6.73;;;17.50;92.80;;;;;;5031935;28;20229;-75
2021/09/14 03:26:53;;;;;;;16.63;7.37;;;17.50;92.80;;;;;;5027101;28;20208;-76
2021/09/14 03:29:19;;;;;;;12.07;7.20;;;17.60;92.80;;;;;;5032151;28;20255;-76
2021/09/14 03:31:45;;;;;;;13.20;7.33;;;17.50;92.80;;;;;;5032941;28;20762;-75
2021/09/14 03:34:10;;;;;;;9.60;6.90;;;17.60;92.90;;;;;;5033458;28;20505;-77
2021/09/14 03:36:36;;;;;;;9.20;6.77;;;17.60;92.80;;;;;;5032778;28;20228;-76
2021/09/14 03:39:02;;;;;;;13.07;7.90;;;17.60;92.80;;;;;;5030768;28;20192;-76
2021/09/14 03:41:27;;;;;;;12.33;7.20;;;17.60;92.70;;;;;;5029878;28;20212;-76
2021/09/14 03:43:53;;;;;;;9.43;6.60;;;17.70;92.80;;;;;;5033216;28;20186;-78
2021/09/14 03:46:19;;;;;;;11.90;7.47;;;17.60;92.80;;;;;;5031003;28;20613;-77
2021/09/14 03:48:44;;;;;;;13.17;7.63;;;17.60;92.70;;;;;;5044689;28;20182;-77
2021/09/14 03:51:10;;;;;;;9.47;6.77;;;17.60;92.90;;;;;;5037521;28;20659;-78
2021/09/14 03:53:36;;;;;;;13.30;8.00;;;17.60;92.90;;;;;;5042460;28;20192;-77
2021/09/14 03:56:02;;;;;;;10.87;7.63;;;17.60;93.00;;;;;;5039491;28;20239;-77
2021/09/14 03:58:27;;;;;;;12.50;8.50;;;17.50;93.00;;;;;;5034823;28;20644;-78
2021/09/14 04:00:53;;;;;;;14.33;8.47;;;17.40;93.10;;;;;;5033271;28;20181;-77
2021/09/14 04:03:41;;;;;;;12.37;7.67;;;17.40;93.40;;;;;;5036411;28;20193;-78
2021/09/14 04:06:34;;;;;;;12.43;7.87;;;17.40;93.60;;;;;;5047461;28;20950;-77
2021/09/14 04:08:59;;;;;;;12.00;7.10;;;17.40;93.50;;;;;;5035710;28;20949;-78
2021/09/14 04:11:25;;;;;;;11.03;7.77;;;17.30;93.70;;;;;;5035895;28;20419;-79
2021/09/14 04:13:52;;;;;;;10.00;7.13;;;17.20;93.90;;;;;;5035165;28;20200;-79
2021/09/14 04:16:19;;;;;;;12.57;7.93;;;17.20;94.00;;;;;;5040033;28;20201;-76
2021/09/14 04:18:45;;;;;;;12.40;7.80;;;17.20;94.00;;;;;;5053201;28;20463;-75
2021/09/14 04:21:11;;;;;;;11.70;7.93;;;17.20;94.00;;;;;;5055411;28;20439;-76
2021/09/14 04:23:37;;;;;;;11.77;8.57;;;17.20;94.10;;;;;;5054097;28;20519;-76
2021/09/14 04:26:04;;;;;;;13.07;7.37;;;17.20;94.10;;;;;;5054852;28;20443;-75
2021/09/14 04:28:31;;;;;;;13.40;8.10;;;17.20;94.10;;;;;;5052874;28;20482;-75
2021/09/14 04:30:57;;;;;;;13.20;8.23;;;17.20;94.20;;;;;;5055516;28;20422;-78
2021/09/14 04:33:23;;;;;;;13.70;7.77;;;17.10;94.40;;;;;;5054613;28;20448;-75
2021/09/14 04:35:48;;;;;;;11.70;8.00;;;17.10;94.40;;;;;;5055342;28;20490;-77
2021/09/14 04:38:14;;;;;;;15.03;7.80;;;17.00;94.50;;;;;;5042887;28;20192;-77
2021/09/14 04:40:40;;;;;;;13.87;8.30;;;17.00;94.70;;;;;;5047426;28;20189;-79
2021/09/14 04:43:05;;;;;;;14.23;9.13;;;17.00;94.80;;;;;;5045949;28;20345;-80
2021/09/14 04:45:31;;;;;;;13.40;8.53;;;17.00;94.70;;;;;;5052134;28;20208;-79
2021/09/14 04:47:57;;;;;;;11.97;8.37;;;17.00;94.80;;;;;;5052557;28;20173;-77
2021/09/14 04:50:23;;;;;;;12.67;8.30;;;17.00;94.80;;;;;;5041424;28;20831;-76
2021/09/14 04:52:48;;;;;;;14.97;9.67;;;17.00;94.80;;;;;;5034369;28;20203;-76
2021/09/14 04:55:14;;;;;;;13.03;8.43;;;17.00;94.70;;;;;;5038935;28;20208;-76
2021/09/14 04:57:40;;;;;;;12.80;8.50;;;17.00;94.90;;;;;;5036000;28;20208;-76
2021/09/14 05:00:07;;;;;;;11.70;8.50;;;17.00;94.80;;;;;;5034083;28;20192;-77
2021/09/14 05:02:34;;;;;;;12.20;8.00;;;17.00;94.80;;;;;;5035149;28;20257;-76
2021/09/14 05:04:59;;;;;;;14.70;8.60;;;17.00;94.80;;;;;;5031118;28;20451;-77
2021/09/14 05:07:25;;;;;;;14.10;8.37;;;17.00;94.80;;;;;;5032008;28;20423;-77
2021/09/14 05:09:51;;;;;;;15.03;9.30;;;17.00;95.00;;;;;;5038177;28;20193;-77
2021/09/14 05:12:17;;;;;;;11.70;8.03;;;16.90;95.10;;;;;;5038569;28;20215;-75
2021/09/14 05:14:42;;;;;;;13.97;8.77;;;16.90;95.20;;;;;;5055185;28;20232;-76
2021/09/14 05:17:09;;;;;;;12.60;8.57;;;16.90;95.10;;;;;;5057487;28;20506;-75
2021/09/14 05:19:37;;;;;;;13.47;9.17;;;17.00;95.20;;;;;;5059203;28;20207;-77
2021/09/14 05:22:04;;;;;;;12.60;9.10;;;17.00;95.00;;;;;;5057514;28;20404;-80
2021/09/14 05:24:31;;;;;;;14.90;8.47;;;17.00;94.90;;;;;;5038443;28;20423;-79
2021/09/14 05:26:58;;;;;;;17.20;9.20;;;17.00;95.00;;;;;;5042143;28;20473;-78
2021/09/14 05:29:24;;;;;;;13.30;9.40;;;17.00;95.00;;;;;;5044089;28;20482;-79
2021/09/14 05:31:51;;;;;;;12.20;8.93;;;17.00;95.00;;;;;;5047005;28;20761;-79
2021/09/14 05:34:17;;;;;;;19.10;11.07;;;17.00;94.90;;;;;;5041473;28;20507;-80
2021/09/14 05:36:43;;;;;;;20.57;11.13;;;17.00;95.10;;;;;;5053793;28;20484;-78
2021/09/14 05:39:09;;;;;;;15.20;9.97;;;17.00;95.00;;;;;;5056159;28;20192;-77
2021/09/14 05:41:35;;;;;;;14.27;9.17;;;17.00;95.00;;;;;;5041866;28;20420;-76
2021/09/14 05:44:01;;;;;;;21.67;9.53;;;17.10;94.90;;;;;;5050957;28;20439;-77
2021/09/14 05:46:27;;;;;;;15.90;9.97;;;17.10;94.70;;;;;;5050703;28;20526;-77
2021/09/14 05:48:53;;;;;;;18.30;10.17;;;17.20;94.40;;;;;;5047381;28;20435;-77
2021/09/14 05:51:20;;;;;;;16.20;10.00;;;17.20;94.30;;;;;;5042439;28;20201;-78
2021/09/14 05:53:46;;;;;;;17.53;9.80;;;17.20;94.40;;;;;;5023700;28;20460;-78
2021/09/14 05:56:12;;;;;;;13.07;9.47;;;17.30;94.30;;;;;;5028952;28;20549;-78
2021/09/14 05:58:37;;;;;;;15.60;8.30;;;17.30;94.30;;;;;;5032149;28;20423;-79
2021/09/14 06:01:03;;;;;;;15.67;9.57;;;17.30;94.20;;;;;;5034841;28;20648;-78
2021/09/14 06:03:32;;;;;;;15.40;9.47;;;17.40;94.20;;;;;;5032587;28;20556;-79
2021/09/14 06:05:58;;;;;;;16.17;9.67;;;17.40;94.10;;;;;;5034357;28;20215;-77
2021/09/14 06:08:24;;;;;;;16.27;9.90;;;17.40;93.80;;;;;;5063155;28;20443;-79
2021/09/14 06:10:49;;;;;;;12.00;8.83;;;17.40;93.80;;;;;;5034212;28;20182;-80
2021/09/14 06:13:15;;;;;;;12.43;8.73;;;17.40;93.70;;;;;;5034494;28;20188;-80
2021/09/14 06:15:41;;;;;;;14.03;9.60;;;17.40;93.90;;;;;;5034179;28;20297;-79
2021/09/14 06:18:07;;;;;;;15.03;9.20;;;17.40;93.80;;;;;;5033213;28;20208;-79
2021/09/14 06:20:33;;;;;;;13.97;9.53;;;17.40;93.90;;;;;;5033677;28;20841;-78
2021/09/14 06:22:59;;;;;;;15.10;9.77;;;17.50;94.00;;;;;;5031967;28;20754;-79
2021/09/14 06:25:25;;;;;;;15.10;9.47;;;17.60;93.80;;;;;;5031710;28;20692;-79
2021/09/14 06:27:50;;;;;;;17.80;11.20;;;17.60;93.70;;;;;;5030081;28;20196;-76
2021/09/14 06:30:17;;;;;;;12.13;8.70;;;17.70;93.60;;;;;;5030836;28;20479;-76
2021/09/14 06:32:43;;;;;;;13.00;9.30;;;17.80;93.40;;;;;;5030131;28;20283;-75
2021/09/14 06:35:09;;;;;;;13.97;8.97;;;17.80;93.30;;;;;;5029009;28;20532;-77
2021/09/14 06:37:35;;;;;;;14.30;9.50;;;17.90;93.40;;;;;;4989725;28;1235072;-78
2021/09/14 06:40:02;;;;;;;13.33;9.00;;;17.90;93.30;;;;;;5033336;28;20224;-77
2021/09/14 06:42:29;;;;;;;16.07;10.00;;;18.00;93.10;;;;;;5032305;28;20269;-77
2021/09/14 06:44:55;;;;;;;16.33;10.60;;;18.10;93.00;;;;;;5033328;28;20437;-79
2021/09/14 06:47:21;;;;;;;18.70;12.03;;;18.20;92.80;;;;;;5036516;28;20420;-76
2021/09/14 06:49:47;;;;;;;18.60;10.60;;;18.30;92.40;;;;;;5036019;28;20795;-75
2021/09/14 06:52:13;;;;;;;20.83;10.77;;;18.30;92.00;;;;;;5034830;28;20207;-76
2021/09/14 06:54:38;;;;;;;19.23;11.27;;;18.40;91.90;;;;;;5034479;28;20181;-78
2021/09/14 06:57:04;;;;;;;16.30;11.73;;;18.40;92.10;;;;;;5038101;28;20218;-78
2021/09/14 06:59:30;;;;;;;17.77;11.10;;;18.40;91.90;;;;;;5039216;28;20187;-77
2021/09/14 07:01:56;;;;;;;21.60;12.27;;;18.50;91.80;;;;;;5037320;28;20938;-78
2021/09/14 07:04:21;;;;;;;21.80;12.00;;;18.60;91.70;;;;;;5040391;28;20187;-78
2021/09/14 07:06:50;;;;;;;21.50;11.23;;;18.70;91.50;;;;;;5039648;28;20209;-76
2021/09/14 07:09:16;;;;;;;18.70;11.33;;;18.80;91.30;;;;;;5036617;28;20666;-78
2021/09/14 07:11:42;;;;;;;19.57;10.40;;;18.80;91.20;;;;;;5037868;28;20524;-79
2021/09/14 07:14:08;;;;;;;19.60;12.40;;;18.90;90.90;;;;;;5040209;28;20454;-78
2021/09/14 07:16:34;;;;;;;23.53;10.30;;;19.00;90.70;;;;;;5042107;28;20274;-78
2021/09/14 07:19:00;;;;;;;18.07;9.90;;;19.10;90.50;;;;;;5037097;28;20432;-79
2021/09/14 07:21:25;;;;;;;17.97;10.97;;;19.10;90.30;;;;;;5036761;28;20557;-79
2021/09/14 07:23:51;;;;;;;17.47;11.00;;;19.10;90.50;;;;;;5035775;28;20187;-76
2021/09/14 07:26:34;;;;;;;19.47;12.40;;;19.10;90.40;;;;;;5034673;28;20201;-80
2021/09/14 07:29:00;;;;;;;16.90;10.47;;;19.20;90.20;;;;;;5034721;28;20243;-77
2021/09/14 07:31:29;;;;;;;22.53;11.00;;;19.30;89.50;;;;;;5034617;28;20431;-77
2021/09/14 07:33:55;;;;;;;15.67;10.23;;;19.40;89.30;;;;;;5033294;28;20531;-75
2021/09/14 07:36:21;;;;;;;22.00;11.00;;;19.50;89.00;;;;;;5032617;28;20478;-77
2021/09/14 07:38:47;;;;;;;16.73;9.63;;;19.50;88.70;;;;;;5033218;28;20423;-75
2021/09/14 07:41:12;;;;;;;17.50;10.17;;;19.60;88.30;;;;;;5033426;28;20178;-76
2021/09/14 07:43:38;;;;;;;20.03;10.53;;;19.70;88.30;;;;;;5032755;28;20174;-75
2021/09/14 07:46:07;;;;;;;15.53;9.83;;;19.70;88.40;;;;;;5032568;28;20229;-75
2021/09/14 07:48:33;;;;;;;14.13;9.50;;;19.70;88.30;;;;;;5031417;28;20192;-75
2021/09/14 07:50:58;;;;;;;15.20;9.53;;;19.90;86.90;;;;;;5030263;28;20440;-77
2021/09/14 07:53:24;;;;;;;16.57;9.50;;;20.00;86.90;;;;;;5032406;28;20189;-75
2021/09/14 07:55:50;;;;;;;14.43;9.27;;;20.00;87.30;;;;;;5030722;28;20239;-78
2021/09/14 07:58:15;;;;;;;12.47;8.53;;;20.00;86.80;;;;;;5032201;28;20204;-75
2021/09/14 08:00:41;;;;;;;18.50;9.43;;;20.20;86.30;;;;;;5032714;28;20236;-78
2021/09/14 08:03:07;;;;;;;12.43;8.33;;;20.20;86.30;;;;;;5030420;28;20567;-78
2021/09/14 08:05:36;;;;;;;16.17;10.60;;;20.30;86.00;;;;;;5032342;28;20209;-77
2021/09/14 08:08:02;;;;;;;14.33;8.63;;;20.40;85.70;;;;;;5032606;28;20185;-76
2021/09/14 08:10:28;;;;;;;14.90;8.80;;;20.50;84.60;;;;;;5031371;28;20413;-75
2021/09/14 08:12:54;;;;;;;16.17;9.70;;;20.60;84.30;;;;;;5032633;28;20183;-76
2021/09/14 08:15:19;;;;;;;16.83;9.07;;;20.70;83.70;;;;;;5031771;28;20207;-74
2021/09/14 08:17:45;;;;;;;16.03;10.60;;;20.90;82.70;;;;;;5030548;28;20240;-74
2021/09/14 08:20:11;;;;;;;15.00;9.10;;;21.00;82.20;;;;;;5032163;28;20277;-75
2021/09/14 08:22:37;;;;;;;12.87;8.03;;;21.10;82.40;;;;;;5032420;28;20203;-76
2021/09/14 08:25:04;;;;;;;10.23;7.63;;;21.20;81.80;;;;;;5032579;28;20204;-75
2021/09/14 08:27:29;;;;;;;20.77;9.37;;;21.30;81.40;;;;;;5027787;28;20183;-76
2021/09/14 08:29:55;;;;;;;10.87;7.70;;;21.40;80.80;;;;;;5030874;28;20430;-76
2021/09/14 08:32:21;;;;;;;9.97;7.30;;;21.60;79.90;;;;;;5032115;28;20678;-76
2021/09/14 08:34:46;;;;;;;11.13;7.03;;;21.70;78.40;;;;;;5031314;28;20190;-78
2021/09/14 08:37:12;;;;;;;11.33;8.40;;;21.70;77.40;;;;;;5029930;28;20798;-75
2021/09/14 08:39:38;;;;;;;12.93;7.67;;;21.90;77.10;;;;;;5032292;28;20223;-76
2021/09/14 08:42:04;;;;;;;11.40;7.00;;;22.00;77.10;;;;;;5031720;28;20185;-77
2021/09/14 08:44:30;;;;;;;11.77;6.97;;;22.10;76.70;;;;;;5030513;28;20184;-75
2021/09/14 08:46:56;;;;;;;11.50;7.40;;;22.30;74.90;;;;;;5031996;28;20453;-75
2021/09/14 08:49:21;;;;;;;9.03;6.70;;;22.50;74.90;;;;;;5031675;28;20192;-77
2021/09/14 08:51:47;;;;;;;11.63;6.47;;;22.60;73.90;;;;;;5031919;28;20191;-75
2021/09/14 08:54:13;;;;;;;11.93;7.30;;;22.70;73.70;;;;;;5031567;28;20232;-76
2021/09/14 08:56:39;;;;;;;8.90;6.10;;;22.70;73.90;;;;;;5030918;28;20295;-75
2021/09/14 08:59:05;;;;;;;10.80;6.83;;;22.90;73.20;;;;;;5032709;28;21126;-75
2021/09/14 09:01:31;;;;;;;13.13;6.57;;;23.00;73.20;;;;;;5031913;28;20210;-76
2021/09/14 09:04:04;;;;;;;12.33;6.87;;;23.10;72.40;;;;;;5029920;28;20526;-75
2021/09/14 09:06:38;;;;;;;8.60;6.27;;;23.20;71.80;;;;;;5031877;28;20445;-75
2021/09/14 09:09:18;;;;;;;7.27;6.03;;;23.30;72.40;;;;;;5031512;28;20820;-75
2021/09/14 09:12:03;;;;;;;14.90;7.40;;;23.30;72.30;;;;;;5029977;28;20448;-78
2021/09/14 09:14:47;;;;;;;10.10;6.70;;;23.40;71.70;;;;;;5029584;28;20494;-75
2021/09/14 09:17:17;;;;;;;10.37;6.40;;;23.50;71.60;;;;;;5031446;28;20508;-75
2021/09/14 09:20:02;;;;;;;11.47;6.93;;;23.60;71.00;;;;;;5031777;28;20856;-77
2021/09/14 09:22:28;;;;;;;8.47;6.67;;;23.70;70.70;;;;;;5028741;28;20485;-77
2021/09/14 09:24:54;;;;;;;12.50;7.33;;;23.90;70.20;;;;;;5025951;28;20512;-77
2021/09/14 09:27:23;;;;;;;11.20;6.53;;;24.00;69.80;;;;;;5029803;28;20195;-76
2021/09/14 09:30:00;;;;;;;6.93;5.93;;;24.10;69.90;;;;;;5032352;28;20769;-76
2021/09/14 09:32:26;;;;;;;10.07;6.77;;;24.10;69.50;;;;;;5031024;28;20504;-78
2021/09/14 09:34:59;;;;;;;10.30;6.23;;;24.20;69.50;;;;;;5032695;28;20930;-76
2021/09/14 09:37:25;;;;;;;13.67;6.67;;;24.40;68.80;;;;;;5037163;28;20554;-78
2021/09/14 09:39:51;;;;;;;8.00;6.90;;;24.50;68.50;;;;;;5029275;28;20993;-78
2021/09/14 09:42:17;;;;;;;8.53;6.27;;;24.60;67.60;;;;;;5034225;28;20181;-78
2021/09/14 09:44:59;;;;;;;8.50;6.83;;;24.60;67.00;;;;;;5033839;28;20263;-77
2021/09/14 09:47:25;;;;;;;10.97;6.50;;;24.70;67.00;;;;;;5031993;28;20643;-78
2021/09/14 09:49:52;;;;;;;8.90;6.30;;;24.80;66.90;;;;;;5032013;28;20446;-77
2021/09/14 09:52:19;;;;;;;10.80;7.20;;;24.90;67.20;;;;;;5026366;28;20421;-77
2021/09/14 09:54:45;;;;;;;11.97;7.07;;;25.00;67.20;;;;;;5032165;28;20453;-77
2021/09/14 09:57:12;;;;;;;9.07;6.20;;;25.10;66.00;;;;;;5033182;28;20465;-78
2021/09/14 09:59:39;;;;;;;8.07;6.37;;;25.20;65.80;;;;;;5033206;28;20815;-77
2021/09/14 10:02:07;;;;;;;11.70;6.60;;;25.30;66.40;;;;;;5033816;28;20424;-77
2021/09/14 10:05:02;;;;;;;8.03;6.33;;;25.40;65.10;;;;;;5031674;28;20462;-77
2021/09/14 10:07:30;;;;;;;10.80;6.27;;;25.40;66.10;;;;;;5033544;28;20793;-77
2021/09/14 10:09:57;;;;;;;8.77;6.47;;;25.50;66.40;;;;;;5032032;28;20431;-76
2021/09/14 10:12:30;;;;;;;13.87;9.70;;;25.60;65.60;;;;;;5031335;28;20486;-79
2021/09/14 10:15:01;;;;;;;9.57;7.03;;;25.80;65.40;;;;;;5026717;28;20954;-78
2021/09/14 10:17:28;;;;;;;8.27;6.63;;;25.90;65.10;;;;;;5027298;28;20564;-77
2021/09/14 10:19:54;;;;;;;9.50;6.43;;;25.80;64.50;;;;;;5030033;28;20818;-78
2021/09/14 10:22:28;;;;;;;13.20;6.80;;;26.00;65.10;;;;;;5026135;28;20431;-77
2021/09/14 10:24:58;;;;;;;8.77;6.10;;;26.10;64.10;;;;;;5032505;28;20481;-76
2021/09/14 10:27:35;;;;;;;12.53;6.50;;;26.10;63.90;;;;;;5033582;28;20779;-76
2021/09/14 10:30:00;;;;;;;8.60;6.97;;;26.30;63.90;;;;;;5033280;28;20488;-77
2021/09/14 10:32:40;;;;;;;9.37;7.00;;;26.40;63.40;;;;;;5032121;28;20423;-78
2021/09/14 10:35:06;;;;;;;10.87;6.83;;;26.40;62.90;;;;;;5032428;28;20234;-79
2021/09/14 10:37:32;;;;;;;11.80;6.87;;;26.40;63.50;;;;;;5032636;28;20894;-78
2021/09/14 10:40:13;;;;;;;9.43;6.30;;;26.50;63.10;;;;;;5023730;28;20434;-78
2021/09/14 10:42:45;;;;;;;7.40;6.23;;;26.70;62.80;;;;;;5025434;28;20431;-77
2021/09/14 10:45:16;;;;;;;8.40;6.67;;;27.10;61.00;;;;;;5033716;28;20447;-78
2021/09/14 10:47:48;;;;;;;7.50;6.00;;;27.40;60.70;;;;;;5032680;28;20431;-76
2021/09/14 10:50:32;;;;;;;11.50;6.77;;;27.80;60.00;;;;;;5032368;28;20883;-77
2021/09/14 10:52:59;;;;;;;12.20;6.60;;;28.20;58.20;;;;;;5032527;28;20454;-78
2021/09/14 10:55:26;;;;;;;10.63;6.47;;;28.60;58.00;;;;;;5026980;28;20440;-79
2021/09/14 10:57:58;;;;;;;10.83;6.10;;;28.80;56.40;;;;;;5031957;28;20468;-79
2021/09/14 11:00:31;;;;;;;10.00;6.60;;;29.00;56.90;;;;;;5033262;28;20423;-75
2021/09/14 11:02:58;;;;;;;11.17;6.50;;;29.40;56.00;;;;;;5032064;28;20462;-76
2021/09/14 11:05:29;;;;;;;10.60;6.80;;;29.50;56.00;;;;;;5032939;28;20467;-75
2021/09/14 11:08:03;;;;;;;8.23;6.77;;;29.60;54.90;;;;;;5033511;28;20424;-75
2021/09/14 11:10:36;;;;;;;6.87;6.10;;;29.80;54.60;;;;;;5025421;28;20416;-75
2021/09/14 11:13:03;;;;;;;10.27;7.17;;;29.40;54.60;;;;;;5031124;28;20428;-78
2021/09/14 11:15:29;;;;;;;9.57;7.17;;;29.30;55.30;;;;;;5025472;28;20440;-76
2021/09/14 11:17:55;;;;;;;10.80;6.60;;;29.40;55.60;;;;;;5033403;28;20817;-75
2021/09/14 11:20:26;;;;;;;8.10;6.57;;;29.60;55.00;;;;;;5033181;28;20416;-76
2021/09/14 11:22:53;;;;;;;10.23;6.50;;;29.60;54.80;;;;;;5033277;28;20331;-77
2021/09/14 11:25:20;;;;;;;7.37;5.97;;;29.80;54.50;;;;;;5029589;28;20440;-79
2021/09/14 11:28:02;;;;;;;9.00;6.93;;;30.10;54.50;;;;;;5021189;28;20428;-75
2021/09/14 11:30:31;;;;;;;7.30;6.80;;;30.00;53.80;;;;;;5031410;28;20432;-76
2021/09/14 11:32:59;;;;;;;7.63;6.60;;;30.00;53.80;;;;;;5031549;28;20433;-78
2021/09/14 11:35:28;;;;;;;13.00;7.63;;;30.20;54.00;;;;;;5032941;28;20451;-76
2021/09/14 11:38:05;;;;;;;11.93;6.43;;;30.30;53.70;;;;;;5033957;28;20985;-76
2021/09/14 11:40:32;;;;;;;14.00;7.60;;;30.70;53.30;;;;;;5031732;28;20431;-78
2021/09/14 11:43:00;;;;;;;8.80;6.60;;;30.70;52.00;;;;;;5031493;28;20456;-78
2021/09/14 11:45:31;;;;;;;8.77;6.53;;;30.50;52.90;;;;;;5032386;28;20546;-77
2021/09/14 11:47:58;;;;;;;9.43;7.17;;;30.40;52.60;;;;;;5033172;28;20427;-76
2021/09/14 11:50:34;;;;;;;9.07;6.53;;;29.90;53.40;;;;;;5033112;28;20451;-76
2021/09/14 11:53:06;;;;;;;8.37;6.97;;;29.80;54.40;;;;;;5031619;28;20424;-76
2021/09/14 11:55:33;;;;;;;11.27;6.73;;;29.60;55.20;;;;;;5032621;28;20448;-76
2021/09/14 11:57:59;;;;;;;11.17;7.80;;;29.30;55.60;;;;;;5032793;28;20468;-75
2021/09/14 12:00:46;;;;;;;11.03;6.60;;;29.10;55.80;;;;;;5032913;28;20763;-77
2021/09/14 12:03:17;;;;;;;9.67;6.60;;;29.10;57.40;;;;;;5031066;28;20454;-77
2021/09/14 12:05:54;;;;;;;8.90;6.60;;;28.90;56.50;;;;;;5039738;28;20435;-76
2021/09/14 12:08:29;;;;;;;8.90;6.67;;;28.50;58.00;;;;;;5032367;28;20489;-76
2021/09/14 12:10:55;;;;;;;10.23;6.63;;;28.60;57.70;;;;;;5039132;28;20442;-76
2021/09/14 12:13:20;;;;;;;12.10;6.60;;;28.80;57.30;;;;;;5035275;28;20892;-76
2021/09/14 12:15:48;;;;;;;12.60;7.20;;;28.90;56.90;;;;;;5032629;28;20448;-77
2021/09/14 12:18:15;;;;;;;9.40;7.70;;;28.80;57.20;;;;;;5031878;28;20209;-74
2021/09/14 12:20:43;;;;;;;11.70;8.00;;;28.50;58.50;;;;;;5031555;28;20490;-76
2021/09/14 12:23:09;;;;;;;12.87;8.37;;;28.00;59.90;;;;;;5031982;28;20462;-76
2021/09/14 12:25:35;;;;;;;11.40;7.77;;;27.50;61.50;;;;;;5035337;28;20479;-78
2021/09/14 12:28:01;;;;;;;19.20;8.10;;;27.40;61.50;;;;;;5030588;28;20911;-75
2021/09/14 12:30:27;;;;;;;16.57;8.17;;;27.40;61.50;;;;;;5032131;28;20666;-75
2021/09/14 12:32:52;;;;;;;13.10;8.50;;;27.20;61.70;;;;;;5034771;28;20287;-76
2021/09/14 12:35:18;;;;;;;10.30;7.70;;;27.20;62.00;;;;;;5035204;28;20212;-76
2021/09/14 12:37:44;;;;;;;11.60;7.57;;;27.30;61.20;;;;;;5036178;28;20231;-77
2021/09/14 12:40:10;;;;;;;15.30;7.57;;;27.20;61.60;;;;;;5033515;28;20646;-77
2021/09/14 12:42:36;;;;;;;12.50;6.83;;;27.10;61.50;;;;;;5026766;28;20188;-79
2021/09/14 12:45:02;;;;;;;9.93;7.13;;;27.10;61.50;;;;;;5033296;28;20458;-80
2021/09/14 12:47:28;;;;;;;11.73;8.27;;;27.00;61.50;;;;;;5032242;28;20754;-78
2021/09/14 12:49:54;;;;;;;9.20;7.17;;;27.20;61.00;;;;;;5031595;28;20473;-80
2021/09/14 12:52:19;;;;;;;10.60;7.67;;;27.50;60.10;;;;;;5031848;28;20189;-78
2021/09/14 12:54:45;;;;;;;10.03;6.57;;;27.80;59.70;;;;;;5032613;28;20190;-78
2021/09/14 12:57:11;;;;;;;8.77;6.80;;;28.00;58.90;;;;;;5034233;28;21116;-76
2021/09/14 12:59:37;;;;;;;12.50;7.77;;;28.10;58.90;;;;;;5036947;28;20193;-79
2021/09/14 13:02:02;;;;;;;10.80;7.80;;;28.30;57.80;;;;;;5033595;28;20271;-79
2021/09/14 13:04:28;;;;;;;15.23;8.50;;;28.30;58.10;;;;;;5033699;28;20181;-79
2021/09/14 13:06:54;;;;;;;8.80;7.17;;;28.20;58.20;;;;;;5037831;28;20228;-79
2021/09/14 13:09:19;;;;;;;10.97;8.20;;;28.30;57.80;;;;;;5037448;28;20181;-79
2021/09/14 13:11:45;;;;;;;11.27;7.40;;;28.40;58.00;;;;;;5037567;28;20185;-79
2021/09/14 13:17:11;;;;;;;9.90;7.90;;;28.90;56.80;;;;;;5014651;28;20305;-78
2021/09/14 13:19:37;;;;;;;9.97;7.57;;;29.50;55.20;;;;;;5037216;28;20436;-80
2021/09/14 13:22:03;;;;;;;12.93;7.00;;;29.80;54.40;;;;;;5037327;28;20470;-78
2021/09/14 13:24:28;;;;;;;12.00;7.63;;;29.90;54.00;;;;;;5036003;28;20182;-80
2021/09/14 13:26:54;;;;;;;12.03;7.60;;;30.10;53.30;;;;;;5036478;28;20546;-80
2021/09/14 13:29:20;;;;;;;7.87;6.63;;;30.40;53.30;;;;;;5032801;28;20268;-80
2021/09/14 13:31:46;;;;;;;9.67;6.57;;;30.80;52.40;;;;;;5037547;28;20603;-79